Time;durP1;ratioP1;P1;durP2;ratioP2;P2;SDS_P1;SDS_P2;PMS_P1;PMS_P2;Temp;Humidity;BMP_temperature;BMP_pressure;BME280_temperature;BME280_humidity;BME280_pressure;Samples;Min_cycle;Max_cycle;Signal;HPM_P1;HPM_P2
2023/09/05 00:04:39;;;;;;;5.57;3.95;;;;;;;18.12;83.02;102390.53;20391482;28;20046;-60
2023/09/05 00:15:01;;;;;;;5.70;3.88;;;;;;;18.04;83.30;102380.31;20383636;28;20056;-60
2023/09/05 00:25:23;;;;;;;6.07;4.38;;;;;;;18.02;83.36;102372.53;20373979;29;20390;-60
2023/09/05 00:35:45;;;;;;;7.70;3.70;;;;;;;17.93;83.67;102357.16;20363743;29;20754;-60
2023/09/05 00:46:06;;;;;;;7.15;3.53;;;;;;;17.87;83.34;102346.03;20384144;28;20036;-60
2023/09/05 00:56:28;;;;;;;6.47;4.05;;;;;;;17.76;84.07;102348.19;20375111;29;20513;-60
2023/09/05 01:07:02;;;;;;;8.43;4.28;;;;;;;17.66;84.51;102349.41;20383371;29;20047;-60
2023/09/05 01:17:24;;;;;;;5.68;4.05;;;;;;;17.58;84.73;102343.59;20392824;28;20489;-59
2023/09/05 01:27:48;;;;;;;5.10;4.50;;;;;;;17.53;84.89;102353.34;20362197;29;20690;-60
2023/09/05 01:38:10;;;;;;;7.15;4.88;;;;;;;17.41;84.92;102332.81;20386383;28;20052;-60
2023/09/05 01:48:32;;;;;;;6.25;4.72;;;;;;;17.38;85.76;102331.13;20391163;28;20536;-60
2023/09/05 01:58:54;;;;;;;9.60;4.88;;;;;;;17.30;86.11;102332.31;20371112;29;20043;-59
2023/09/05 02:09:15;;;;;;;7.10;5.55;;;;;;;17.25;86.32;102323.78;20383785;28;20394;-60
2023/09/05 02:19:37;;;;;;;7.10;5.22;;;;;;;17.22;86.10;102313.38;20395762;28;20738;-60
2023/09/05 02:30:01;;;;;;;12.27;6.35;;;;;;;17.10;86.03;102309.44;20384096;28;20047;-59
2023/09/05 02:40:23;;;;;;;8.25;5.63;;;;;;;17.03;86.53;102307.94;20370930;28;20191;-59
2023/09/05 02:50:44;;;;;;;7.47;5.80;;;;;;;16.91;87.51;102309.19;20379394;29;20062;-60
2023/09/05 03:01:11;;;;;;;8.23;6.03;;;;;;;16.84;87.22;102298.97;20386006;29;20061;-60
2023/09/05 03:11:33;;;;;;;10.27;5.45;;;;;;;16.81;87.17;102297.28;20387210;29;20051;-59
2023/09/05 03:21:54;;;;;;;7.15;5.68;;;;;;;16.79;87.69;102293.03;20373963;28;20045;-60
2023/09/05 03:32:16;;;;;;;9.73;6.00;;;;;;;16.75;88.33;102300.13;20381770;29;20039;-59
2023/09/05 03:42:38;;;;;;;7.45;6.20;;;;;;;16.65;88.33;102285.63;20369324;29;20122;-60
2023/09/05 03:52:59;;;;;;;8.02;6.18;;;;;;;16.59;88.69;102280.56;20376659;29;20050;-60
2023/09/05 04:03:21;;;;;;;8.88;6.07;;;;;;;16.55;88.60;102286.84;20386166;29;20052;-60
2023/09/05 04:13:43;;;;;;;8.52;5.80;;;;;;;16.45;89.34;102290.59;20388603;29;20076;-59
2023/09/05 04:24:05;;;;;;;8.60;6.70;;;;;;;16.35;89.20;102276.09;20379357;29;20044;-59
2023/09/05 04:34:27;;;;;;;13.40;6.65;;;;;;;16.32;89.52;102268.34;20386210;29;20876;-60
2023/09/05 04:44:50;;;;;;;13.40;7.03;;;;;;;16.25;90.35;102268.56;20387505;29;20130;-59
2023/09/05 04:55:12;;;;;;;9.50;6.50;;;;;;;16.25;90.59;102285.13;20382846;28;20138;-59
2023/09/05 05:05:34;;;;;;;16.17;8.00;;;;;;;16.21;90.58;102280.88;20367042;29;20464;-61
2023/09/05 05:15:56;;;;;;;10.43;7.60;;;;;;;16.09;90.10;102281.25;20382408;29;20547;-61
2023/09/05 05:26:18;;;;;;;10.50;7.57;;;;;;;16.17;91.42;102294.91;20375170;29;20048;-60
2023/09/05 05:36:40;;;;;;;13.02;7.32;;;;;;;16.20;90.47;102281.78;20368391;29;20382;-60
2023/09/05 05:47:03;;;;;;;8.63;7.20;;;;;;;16.26;90.71;102278.13;20362600;29;20055;-60
2023/09/05 05:57:25;;;;;;;9.43;6.05;;;;;;;16.33;90.43;102271.81;20369794;29;20052;-60
2023/09/05 06:07:47;;;;;;;7.82;6.25;;;;;;;16.47;90.23;102274.84;20373732;28;20393;-59
2023/09/05 06:18:09;;;;;;;9.30;6.18;;;;;;;16.62;89.62;102263.97;20377641;29;20424;-60
2023/09/05 06:28:31;;;;;;;8.10;5.55;;;;;;;16.81;88.83;102265.91;20381092;28;20083;-59
2023/09/05 06:38:52;;;;;;;8.07;6.18;;;;;;;16.98;88.51;102261.00;20364780;29;20055;-60
2023/09/05 06:49:14;;;;;;;7.88;5.00;;;;;;;17.28;87.41;102250.38;20381562;28;20140;-60
2023/09/05 06:59:36;;;;;;;8.80;4.88;;;;;;;17.49;87.37;102254.91;20375793;29;20058;-60
2023/09/05 07:09:59;;;;;;;10.20;4.50;;;;;;;17.67;86.78;102251.63;20360782;29;20068;-60
2023/09/05 07:20:20;;;;;;;7.35;4.85;;;;;;;17.91;86.02;102254.19;20382107;28;20040;-60
2023/09/05 07:30:42;;;;;;;7.72;4.40;;;;;;;18.11;85.51;102263.06;20394890;28;20058;-60
2023/09/05 07:41:05;;;;;;;6.22;4.05;;;;;;;18.23;85.94;102255.59;20359548;29;20044;-60
2023/09/05 07:51:29;;;;;;;5.30;3.83;;;;;;;18.44;85.82;102265.25;20464279;23;20146;-60
2023/09/05 08:01:51;;;;;;;5.70;3.83;;;;;;;18.68;85.03;102266.91;20482317;28;20078;-60
2023/09/05 08:12:13;;;;;;;9.05;4.10;;;;;;;19.04;83.11;102264.53;20471457;28;20124;-60
2023/09/05 08:22:35;;;;;;;8.43;3.55;;;;;;;19.16;84.06;102266.63;20486317;28;20110;-60
2023/09/05 08:33:01;;;;;;;7.13;3.58;;;;;;;19.41;83.22;102276.97;20476701;28;20044;-60
2023/09/05 08:43:23;;;;;;;6.07;3.47;;;;;;;19.61;83.26;102271.72;20493393;28;20082;-59
2023/09/05 08:53:53;;;;;;;9.07;3.10;;;;;;;19.87;83.38;102272.22;20478463;28;20389;-60
2023/09/05 09:04:16;;;;;;;6.87;3.57;;;;;;;20.33;80.79;102259.59;20465786;28;20634;-61
2023/09/05 09:14:38;;;;;;;7.75;2.53;;;;;;;20.55;80.94;102255.88;20466577;28;20035;-62
2023/09/05 09:24:59;;;;;;;5.40;2.67;;;;;;;20.81;80.61;102262.50;20480432;28;20071;-63
2023/09/05 09:35:22;;;;;;;5.28;2.53;;;;;;;21.07;81.35;102246.28;20474833;28;20717;-63
2023/09/05 09:45:44;;;;;;;6.07;2.50;;;;;;;21.22;81.23;102232.34;20470032;28;20051;-61
2023/09/05 09:56:13;;;;;;;6.85;2.47;;;;;;;21.52;80.16;102225.44;20450586;28;20061;-60
2023/09/05 10:06:35;;;;;;;7.25;1.92;;;;;;;21.83;79.24;102216.78;20465241;28;20047;-60
2023/09/05 10:16:58;;;;;;;3.05;1.90;;;;;;;22.05;77.99;102208.56;20462036;28;20054;-59
2023/09/05 10:27:20;;;;;;;3.15;2.40;;;;;;;22.21;78.64;102204.97;20440455;28;20040;-60
2023/09/05 10:37:50;;;;;;;5.38;2.55;;;;;;;22.45;77.77;102198.28;20468316;28;20573;-60
2023/09/05 10:48:30;;;;;;;4.87;2.30;;;;;;;22.60;78.39;102184.25;20457964;28;20103;-60
2023/09/05 10:58:54;;;;;;;;;;;;;;;22.84;77.68;102177.53;20471794;28;20478;-59
2023/09/05 11:09:15;;;;;;;4.32;3.30;;;;;;;23.34;77.30;102171.00;20474551;28;19930;-60
2023/09/05 11:19:40;;;;;;;5.63;3.10;;;;;;;23.39;77.75;102166.25;20474597;28;20050;-61
2023/09/05 11:30:04;;;;;;;5.13;2.22;;;;;;;23.60;77.04;102159.66;20485495;28;20134;-59
2023/09/05 11:40:26;;;;;;;5.18;2.30;;;;;;;23.85;76.73;102154.50;20504713;28;20138;-60
2023/09/05 11:50:49;;;;;;;3.25;1.90;;;;;;;23.98;76.11;102155.41;20481040;28;20054;-60
2023/09/05 12:01:11;;;;;;;6.78;1.90;;;;;;;24.33;75.22;102142.53;20461221;28;20162;-61
2023/09/05 12:11:32;;;;;;;3.42;1.70;;;;;;;24.71;75.46;102127.59;20456131;28;20608;-60
2023/09/05 12:21:54;;;;;;;3.50;1.83;;;;;;;24.76;75.46;102118.41;20425342;28;20051;-60
2023/09/05 12:32:16;;;;;;;4.63;1.95;;;;;;;24.86;74.40;102119.47;20449992;28;20055;-61
2023/09/05 12:42:38;;;;;;;3.95;2.20;;;;;;;25.11;74.18;102117.78;20441187;28;20055;-61
2023/09/05 12:53:01;;;;;;;3.05;1.80;;;;;;;25.19;74.12;102116.28;20450013;28;20142;-61
2023/09/05 13:03:23;;;;;;;1.65;1.50;;;;;;;25.24;72.99;102107.97;20421799;28;20098;-61
2023/09/05 13:13:44;;;;;;;4.50;2.00;;;;;;;25.46;73.42;102117.00;20417810;28;20051;-60
2023/09/05 13:24:06;;;;;;;3.55;1.73;;;;;;;25.48;74.04;102101.81;20428752;28;20066;-61
2023/09/05 13:34:28;;;;;;;2.90;1.60;;;;;;;25.45;73.40;102101.19;20422974;28;20043;-61
2023/09/05 13:44:50;;;;;;;2.50;1.67;;;;;;;25.57;74.23;102089.69;20446149;28;20662;-61
2023/09/05 13:55:12;;;;;;;3.45;1.67;;;;;;;25.64;73.17;102081.19;20469053;28;20062;-61
2023/09/05 14:05:35;;;;;;;3.35;1.80;;;;;;;25.71;74.00;102071.00;20470104;28;20047;-61
2023/09/05 14:15:59;;;;;;;2.15;1.58;;;;;;;25.76;73.82;102063.53;20469289;28;20051;-61
2023/09/05 14:26:21;;;;;;;1.77;1.50;;;;;;;25.84;73.93;102066.44;20493624;28;20062;-61
2023/09/05 14:36:42;;;;;;;5.25;1.70;;;;;;;25.86;70.98;102067.19;20458532;28;20059;-61
2023/09/05 14:47:05;;;;;;;6.07;1.80;;;;;;;25.92;71.70;102066.72;20409301;28;23643;-62
2023/09/05 14:57:27;;;;;;;1.92;1.42;;;;;;;25.95;73.05;102047.91;20432191;28;20050;-61
2023/09/05 15:07:50;;;;;;;;;;;;;;;25.99;67.46;102049.38;20445776;28;20071;-62
2023/09/05 15:18:11;;;;;;;1.60;1.13;;;;;;;26.00;71.23;102032.53;20437837;28;20691;-62
2023/09/05 15:28:33;;;;;;;3.10;1.25;;;;;;;26.16;69.83;102034.88;20441889;28;20084;-61
2023/09/05 15:38:55;;;;;;;2.33;1.40;;;;;;;26.19;70.83;102030.19;20452488;28;20035;-61
2023/09/05 15:49:16;;;;;;;5.32;1.70;;;;;;;26.27;70.87;102027.78;20450861;28;20201;-61
2023/09/05 15:59:41;;;;;;;7.63;2.00;;;;;;;26.37;70.93;102018.16;20438829;28;20073;-62
2023/09/05 16:10:04;;;;;;;4.93;1.95;;;;;;;26.48;71.05;102023.47;20436903;28;20163;-62
2023/09/05 16:20:28;;;;;;;8.55;2.33;;;;;;;27.04;70.31;102026.19;20438974;28;20050;-62
2023/09/05 16:30:57;;;;;;;6.70;2.23;;;;;;;27.08;70.81;102011.69;20419532;28;20043;-62
2023/09/05 16:41:19;;;;;;;5.55;1.80;;;;;;;27.16;70.99;102006.59;20427462;28;20672;-62
2023/09/05 16:51:40;;;;;;;3.78;1.83;;;;;;;27.20;71.25;102005.38;20430927;28;20043;-62
2023/09/05 17:02:02;;;;;;;5.72;2.38;;;;;;;27.00;71.12;102006.13;20436929;28;20051;-61
2023/09/05 17:12:24;;;;;;;5.70;2.00;;;;;;;26.88;72.07;101999.13;20408522;28;20043;-61
2023/09/05 17:22:46;;;;;;;3.28;1.70;;;;;;;26.64;72.46;101994.78;20431530;28;20070;-61
2023/09/05 17:33:13;;;;;;;3.97;1.60;;;;;;;26.40;73.43;101994.03;20450976;28;20047;-61
2023/09/05 17:43:35;;;;;;;4.38;1.90;;;;;;;26.13;73.74;101998.81;20474280;28;20039;-62
2023/09/05 17:53:57;;;;;;;4.45;1.90;;;;;;;25.87;74.51;101999.91;20479290;28;20039;-61
2023/09/05 18:04:19;;;;;;;2.28;1.55;;;;;;;25.65;74.78;102010.41;20453236;28;20042;-61
2023/09/05 18:14:41;;;;;;;3.83;1.80;;;;;;;25.40;74.80;102007.91;20462916;28;20138;-61
2023/09/05 18:25:03;;;;;;;5.80;1.88;;;;;;;25.17;75.87;102006.00;20421932;28;20504;-61
2023/09/05 18:35:24;;;;;;;6.32;2.10;;;;;;;24.95;76.35;102011.16;20414889;28;20051;-61
2023/09/05 18:45:50;;;;;;;3.53;2.05;;;;;;;24.79;76.65;102029.94;20380472;28;20052;-61
2023/09/05 18:56:12;;;;;;;3.22;1.80;;;;;;;24.60;77.22;102033.00;20388330;28;20135;-61
2023/09/05 19:06:34;;;;;;;3.45;1.80;;;;;;;24.47;77.55;102041.88;20409684;28;20074;-62
2023/09/05 19:16:56;;;;;;;2.70;1.95;;;;;;;24.30;77.81;102050.97;20419433;28;20114;-62
2023/09/05 19:27:17;;;;;;;4.63;2.10;;;;;;;24.14;78.47;102047.66;20397029;28;20570;-61
2023/09/05 19:37:39;;;;;;;6.63;2.72;;;;;;;23.99;78.60;102048.63;20407616;28;20518;-61
2023/09/05 19:48:01;;;;;;;7.65;2.70;;;;;;;23.94;78.08;102058.69;20425106;28;20039;-62
2023/09/05 19:58:22;;;;;;;3.70;2.65;;;;;;;23.93;78.24;102071.06;20438016;28;20078;-62
2023/09/05 20:08:44;;;;;;;3.38;2.42;;;;;;;23.76;79.19;102058.09;20427624;28;20050;-61
2023/09/05 20:19:11;;;;;;;3.47;2.45;;;;;;;23.57;79.63;102075.25;20413762;28;20065;-61
2023/09/05 20:29:34;;;;;;;4.10;2.17;;;;;;;23.41;80.16;102069.25;20426662;28;20086;-61
2023/09/05 20:39:55;;;;;;;4.97;2.70;;;;;;;23.26;80.60;102065.75;20442337;28;20051;-61
2023/09/05 20:50:17;;;;;;;4.63;2.45;;;;;;;23.07;81.34;102061.72;20444175;28;20048;-61
2023/09/05 21:00:39;;;;;;;5.00;2.67;;;;;;;22.96;81.35;102057.09;20456206;28;20518;-61
2023/09/05 21:11:01;;;;;;;4.78;2.88;;;;;;;22.87;81.49;102055.03;20444586;28;20051;-62
2023/09/05 21:21:23;;;;;;;4.40;3.13;;;;;;;22.70;81.85;102050.78;20452544;28;20424;-62
2023/09/05 21:31:45;;;;;;;3.35;2.58;;;;;;;22.55;82.28;102043.78;20467221;28;20110;-62
2023/09/05 21:42:07;;;;;;;4.13;2.40;;;;;;;22.49;82.78;102046.75;20469562;28;20051;-62
2023/09/05 21:52:28;;;;;;;5.93;2.25;;;;;;;22.35;83.11;102054.66;20471280;28;20055;-61
2023/09/05 22:02:50;;;;;;;3.67;2.55;;;;;;;22.20;83.13;102055.56;20488342;28;20514;-61
2023/09/05 22:13:12;;;;;;;3.35;2.72;;;;;;;22.12;83.56;102054.31;20482416;28;20057;-61
2023/09/05 22:23:33;;;;;;;4.75;3.00;;;;;;;21.90;84.51;102047.63;20500192;28;20057;-62
2023/09/05 22:33:55;;;;;;;4.53;2.53;;;;;;;21.81;84.54;102063.16;20490084;28;20799;-61
2023/09/05 22:44:17;;;;;;;4.15;2.90;;;;;;;21.69;85.00;102079.59;20457354;28;20051;-61
2023/09/05 22:54:38;;;;;;;5.50;3.05;;;;;;;21.57;85.30;102088.22;20473465;28;20067;-61
2023/09/05 23:05:00;;;;;;;4.68;3.33;;;;;;;21.52;85.12;102098.13;20452104;28;20051;-62
2023/09/05 23:15:22;;;;;;;4.10;3.15;;;;;;;21.53;85.25;102089.31;20477779;28;20051;-62
2023/09/05 23:25:45;;;;;;;4.75;3.15;;;;;;;21.39;85.29;102094.50;20470838;28;20496;-62
2023/09/05 23:36:06;;;;;;;8.05;3.15;;;;;;;21.17;86.15;102101.84;20450986;28;21020;-62
2023/09/05 23:46:28;;;;;;;7.30;2.88;;;;;;;21.01;86.38;102101.81;20455515;28;20077;-62
2023/09/05 23:56:50;;;;;;;9.80;3.70;;;;;;;20.89;87.14;102098.00;20475220;28;20036;-61
